Edi Upper Vineyard, Victoria

10:33 AM EST on September 03, 2014 (GMT +1000)
Albury | Change Station
CLOSE
Current Station
Airport
Location: Albury,
Elevation: 541 ft
Nearby Weather Stations

Elev 541 ft 36.07 °S, 146.96 °E | Updated 33 minutes ago

Clear
Clear
50 °F
Feels Like 50 °F
N
2
Wind Variable Wind from East

Today
High -- | Low -- °F
--% Chance of Precip.
Yesterday
High -- | Low -- °F
Precip. -- in
6:32 AM 5:55 PM
First Quarter, 56% visible
Pressure 30.12 in
Visibility 6.2 miles
Clouds
Dew Point 37 °F
Humidity 62%
Rainfall 0.00 in
Snow Depth Not available.
UV Not available.
Pollen Not available.
Air Quality Not available.
Flu Activity Not available.
METAR YMAY 030000Z AUTO 08002KT 9999 // NCD 10/03 Q1020

More Conditions Fewer Conditions

Pressure 30.12 in
Visibility 6.2 miles
Clouds
Dew Point 37 °F
Humidity 62%
Rainfall 0.00 in
Snow Depth Not available.
UV Not available.
Pollen Not available.
Air Quality Not available.
Flu Activity Not available.
METAR YMAY 030000Z AUTO 08002KT 9999 // NCD 10/03 Q1020

More Conditions Fewer Conditions

10-Day Weather Forecast

Almanac

Astronomy

Sep. 03, 2014 Rise Set
Actual Time 6:32 AM EST 5:55 PM EST
Civil Twilight 6:06 AM EST 6:21 PM EST
Nautical Twilight 5:36 AM EST 6:51 PM EST
Astronomical Twilight 5:06 AM EST 7:21 PM EST
Moon 11:38 AM EST 1:08 AM EST
Length of Visible Light 12h 14m
Length of Day
11h 22m
Tomorrow will be 2m 14s longer.
First Quarter, 56% of the Moon is Illuminated
Sep 2
First Quarter
Sep 8
Full
Sep 15
Last Quarter
Sep 24
New
Oct 1
First Quarter

Yesterday's Extremes

Country Highs Country Lows

Community

WunderPhotos

Upload Photos

1,749,812 photos uploaded!

Nearby

Snow Depth

Not available.

Earthquake Activity

City Distance Mag. Time & Date
No recent earthquake activity has been reported nearby.
Minimum magnitude displayed is 2.5.

Coastal Water Temperatures

Place Temperature
No Stations Reporting

Nearby Weather Stations